Decoded Metar for KDYA ( in ) (IATA:) | Meteo·Mobile Aviation Weather
aviador You're here:

KDYA Decoded Metar

in
Report Time2019-09-23 09:35:00
UTC Time2019-09-23 09:49:18
Flight Rules vfr VFR
WindCalm
Visibility9999 m
Phenomena:N/A
Clouds:N/A
Expected CloudBase > 400 ft AGL from Temp-Dew spread
CeilingNone
Temp17°C
Dew Point16°C (94% RH)
QNH1018 hPa
Raw Report
METAR KDYA 230935Z AUTO 00000KT 10SM CLR 17/16 A3007 RMK AO2 T01660157=

Extra information for KDYA:More info

Social comments